Time;durP1;ratioP1;P1;durP2;ratioP2;P2;SDS_P1;SDS_P2;PMS_P1;PMS_P2;Temp;Humidity;BMP_temperature;BMP_pressure;BME280_temperature;BME280_humidity;BME280_pressure;Samples;Min_cycle;Max_cycle;Signal;HPM_P1;HPM_P2
2023/10/21 00:00:08;;;;;;;21.55;9.52;;;10.80;99.90;;;;;;5032097;28;20045;-88
2023/10/21 00:02:33;;;;;;;13.65;7.63;;;10.80;99.90;;;;;;5033146;28;20049;-87
2023/10/21 00:04:59;;;;;;;24.52;9.57;;;10.80;99.90;;;;;;5034867;28;20055;-88
2023/10/21 00:07:25;;;;;;;24.60;9.20;;;10.70;99.90;;;;;;5033439;28;20048;-89
2023/10/21 00:09:51;;;;;;;18.65;8.60;;;10.80;99.90;;;;;;5033621;28;20059;-88
2023/10/21 00:12:16;;;;;;;18.55;8.60;;;10.70;99.90;;;;;;5031846;28;20045;-88
2023/10/21 00:14:42;;;;;;;16.00;9.05;;;10.60;99.90;;;;;;5033565;28;20044;-88
2023/10/21 00:17:07;;;;;;;15.20;7.78;;;10.70;99.90;;;;;;5016631;28;20044;-88
2023/10/21 00:19:34;;;;;;;16.45;7.93;;;10.60;99.90;;;;;;5013976;28;20057;-88
2023/10/21 00:21:59;;;;;;;15.20;8.23;;;10.60;99.90;;;;;;5013174;28;20079;-88
2023/10/21 00:24:25;;;;;;;18.58;8.70;;;10.60;99.90;;;;;;5012939;28;20483;-88
2023/10/21 00:26:51;;;;;;;19.48;8.15;;;10.60;99.90;;;;;;5003724;28;20119;-89
2023/10/21 00:29:17;;;;;;;20.48;8.95;;;10.50;99.90;;;;;;5031575;28;20048;-87
2023/10/21 00:31:43;;;;;;;20.10;9.57;;;10.50;99.90;;;;;;5016582;28;20095;-88
2023/10/21 00:34:12;;;;;;;17.55;8.85;;;10.90;99.90;;;;;;5031213;28;20052;-88
2023/10/21 00:36:38;;;;;;;22.70;9.00;;;10.40;99.90;;;;;;5031630;28;20631;-88
2023/10/21 00:39:03;;;;;;;21.33;9.75;;;10.50;99.90;;;;;;5031206;28;20048;-88
2023/10/21 00:41:30;;;;;;;26.95;9.70;;;10.40;99.90;;;;;;5026047;28;20052;-88
2023/10/21 00:43:56;;;;;;;19.15;9.27;;;10.40;99.90;;;;;;5028760;28;20051;-89
2023/10/21 00:46:22;;;;;;;29.55;11.30;;;10.40;99.90;;;;;;5031374;28;20407;-88
2023/10/21 00:48:49;;;;;;;19.35;10.25;;;10.30;99.90;;;;;;5024324;28;20049;-89
2023/10/21 00:51:15;;;;;;;33.53;12.10;;;10.20;99.90;;;;;;5031036;28;20384;-87
2023/10/21 00:53:43;;;;;;;29.65;11.88;;;10.30;99.90;;;;;;5030790;28;20048;-87
2023/10/21 00:56:09;;;;;;;42.22;13.07;;;10.20;99.90;;;;;;5031385;28;20372;-88
2023/10/21 00:58:35;;;;;;;29.40;12.73;;;10.30;99.90;;;;;;5030943;28;20115;-88
2023/10/21 01:01:06;;;;;;;28.00;12.52;;;10.20;99.90;;;;;;5031708;28;20052;-88
2023/10/21 01:03:33;;;;;;;31.25;13.38;;;10.50;99.90;;;;;;5031584;28;20049;-87
2023/10/21 01:05:59;;;;;;;32.45;13.73;;;10.20;99.90;;;;;;5031957;28;20060;-88
2023/10/21 01:08:24;;;;;;;43.17;14.15;;;10.20;99.90;;;;;;5029556;28;20053;-88
2023/10/21 01:10:50;;;;;;;39.92;14.40;;;10.10;99.90;;;;;;5032137;28;20098;-89
2023/10/21 01:13:16;;;;;;;47.58;15.40;;;10.10;99.90;;;;;;5031267;28;20052;-89
2023/10/21 01:15:42;;;;;;;37.38;13.98;;;10.10;99.90;;;;;;5021500;28;20107;-88
2023/10/21 01:18:08;;;;;;;39.88;14.13;;;10.00;99.90;;;;;;5031456;28;20410;-89
2023/10/21 01:20:35;;;;;;;35.78;14.93;;;10.40;99.90;;;;;;4995155;28;1054134;-87
2023/10/21 01:23:01;;;;;;;31.40;14.45;;;10.00;99.90;;;;;;4996451;28;20126;-88
2023/10/21 01:25:30;;;;;;;33.83;14.07;;;9.90;99.90;;;;;;5014077;28;20128;-89
2023/10/21 01:27:56;;;;;;;30.90;14.02;;;9.90;99.90;;;;;;5012850;28;20051;-89
2023/10/21 01:30:23;;;;;;;33.60;14.20;;;10.00;99.90;;;;;;5033059;28;20036;-89
2023/10/21 01:32:49;;;;;;;46.92;15.57;;;10.20;99.90;;;;;;5032274;28;20250;-88
2023/10/21 01:35:16;;;;;;;49.38;15.43;;;9.90;99.90;;;;;;5031552;28;20055;-89
2023/10/21 01:37:43;;;;;;;35.60;13.90;;;9.90;99.90;;;;;;5032043;28;20410;-89
2023/10/21 01:40:10;;;;;;;28.50;13.00;;;9.90;99.90;;;;;;5033119;28;20048;-89
2023/10/21 01:42:39;;;;;;;20.75;12.52;;;9.90;99.90;;;;;;5033935;28;20094;-89
2023/10/21 01:45:05;;;;;;;30.27;13.18;;;9.90;99.90;;;;;;5022968;28;20116;-88
2023/10/21 01:47:31;;;;;;;25.52;12.20;;;9.90;99.90;;;;;;5017763;28;20395;-88
2023/10/21 01:49:58;;;;;;;39.58;15.27;;;9.90;99.90;;;;;;5031219;28;20552;-88
2023/10/21 01:52:24;;;;;;;25.60;12.27;;;10.00;99.90;;;;;;5032716;28;20494;-88
2023/10/21 01:54:53;;;;;;;38.25;14.00;;;9.90;99.90;;;;;;5031731;28;20045;-89
2023/10/21 01:57:19;;;;;;;22.73;13.00;;;9.90;99.90;;;;;;5015987;28;20064;-89
2023/10/21 01:59:46;;;;;;;40.28;15.10;;;9.90;99.90;;;;;;5031272;28;20041;-88
2023/10/21 02:02:11;;;;;;;59.70;15.80;;;10.00;99.90;;;;;;5031967;28;20517;-89
2023/10/21 02:04:37;;;;;;;32.85;13.15;;;9.90;99.90;;;;;;5032701;28;20045;-89
2023/10/21 02:07:03;;;;;;;27.27;12.88;;;10.20;99.90;;;;;;5031615;28;20402;-89
2023/10/21 02:09:29;;;;;;;25.80;13.13;;;9.80;99.90;;;;;;5023718;28;20048;-89
2023/10/21 02:11:56;;;;;;;23.63;12.20;;;9.80;99.90;;;;;;5006849;28;20051;-87
2023/10/21 02:14:22;;;;;;;25.75;12.65;;;10.30;99.90;;;;;;5033041;28;20044;-89
2023/10/21 02:16:55;;;;;;;33.28;13.65;;;9.80;99.90;;;;;;5032904;28;20041;-89
2023/10/21 02:19:20;;;;;;;30.00;13.43;;;9.80;99.90;;;;;;5032108;28;20049;-88
2023/10/21 02:21:47;;;;;;;31.17;12.77;;;9.80;99.90;;;;;;5030394;28;20068;-89
2023/10/21 02:24:13;;;;;;;26.80;12.70;;;9.80;99.90;;;;;;5031658;28;20045;-89
2023/10/21 02:26:39;;;;;;;31.35;13.52;;;9.70;99.90;;;;;;5021434;28;20541;-89
2023/10/21 02:29:04;;;;;;;36.00;14.50;;;9.70;99.90;;;;;;5012581;28;20107;-89
2023/10/21 02:31:30;;;;;;;29.95;13.10;;;9.70;99.90;;;;;;5020079;28;20049;-88
2023/10/21 02:33:56;;;;;;;34.97;13.07;;;10.20;99.90;;;;;;5031480;28;20047;-89
2023/10/21 02:36:22;;;;;;;30.13;13.57;;;9.70;99.90;;;;;;5031649;28;20413;-88
2023/10/21 02:38:50;;;;;;;35.17;13.32;;;9.60;99.90;;;;;;5031810;28;20053;-89
2023/10/21 02:41:18;;;;;;;34.72;14.45;;;9.60;99.90;;;;;;5028680;28;20041;-89
2023/10/21 02:43:43;;;;;;;31.77;13.50;;;9.60;99.90;;;;;;5015787;28;20045;-89
2023/10/21 02:46:11;;;;;;;26.90;12.18;;;9.90;99.90;;;;;;5031286;28;20371;-88
2023/10/21 02:48:37;;;;;;;45.95;15.23;;;9.60;99.90;;;;;;5031310;28;20076;-89
2023/10/21 02:51:09;;;;;;;26.50;12.85;;;10.20;99.90;;;;;;5031428;28;20131;-90
2023/10/21 02:53:35;;;;;;;29.60;12.60;;;9.60;99.90;;;;;;5028892;28;20049;-88
2023/10/21 02:56:05;;;;;;;35.58;14.07;;;10.10;99.90;;;;;;5029731;28;20033;-88
2023/10/21 02:58:31;;;;;;;39.22;14.60;;;10.40;99.90;;;;;;5009548;28;20056;-89
2023/10/21 03:00:56;;;;;;;34.80;13.50;;;9.70;99.90;;;;;;5024471;28;20045;-88
2023/10/21 03:03:22;;;;;;;32.50;13.55;;;9.80;99.90;;;;;;5015497;28;20041;-89
2023/10/21 03:05:48;;;;;;;30.75;13.73;;;9.70;99.90;;;;;;5031389;28;20117;-89
2023/10/21 03:08:14;;;;;;;27.70;13.55;;;9.60;99.90;;;;;;5030080;28;20127;-89
2023/10/21 03:10:40;;;;;;;32.65;13.88;;;9.60;99.90;;;;;;5032056;28;20115;-89
2023/10/21 03:13:06;;;;;;;35.28;15.07;;;9.70;99.90;;;;;;5039666;28;20052;-89
2023/10/21 03:15:35;;;;;;;34.40;14.95;;;9.70;99.90;;;;;;5048537;28;20048;-88
2023/10/21 03:18:01;;;;;;;32.38;14.30;;;9.70;99.90;;;;;;5032087;28;20045;-89
2023/10/21 03:20:30;;;;;;;35.15;15.45;;;9.70;99.90;;;;;;5015116;28;20049;-89
2023/10/21 03:22:57;;;;;;;30.92;15.55;;;9.70;99.90;;;;;;5031237;28;20053;-88
2023/10/21 03:25:22;;;;;;;41.45;15.70;;;9.70;99.90;;;;;;5032745;28;20380;-89
2023/10/21 03:27:48;;;;;;;34.63;16.00;;;9.70;99.90;;;;;;5014081;28;20052;-89
2023/10/21 03:30:14;;;;;;;39.75;16.85;;;9.70;99.90;;;;;;5030729;28;20041;-89
2023/10/21 03:32:40;;;;;;;46.42;18.20;;;9.80;99.90;;;;;;5021680;28;20067;-89
2023/10/21 03:35:06;;;;;;;42.03;17.77;;;9.70;99.90;;;;;;5016336;28;20080;-89
2023/10/21 03:37:34;;;;;;;36.22;16.65;;;9.70;99.90;;;;;;5031069;28;20051;-90
2023/10/21 03:39:59;;;;;;;40.35;16.60;;;9.70;99.90;;;;;;5031858;28;20049;-88
2023/10/21 03:42:26;;;;;;;38.53;17.17;;;9.70;99.90;;;;;;5031630;28;20041;-89
2023/10/21 03:44:51;;;;;;;34.72;17.10;;;9.80;99.90;;;;;;5031367;28;20048;-88
2023/10/21 03:47:17;;;;;;;39.03;17.50;;;10.00;99.90;;;;;;5027289;28;20117;-89
2023/10/21 03:49:43;;;;;;;53.13;18.98;;;9.70;99.90;;;;;;5028821;28;20080;-88
2023/10/21 03:52:08;;;;;;;39.40;16.20;;;9.60;99.90;;;;;;5028753;28;20069;-88
2023/10/21 03:54:34;;;;;;;71.70;19.52;;;9.60;99.90;;;;;;5029673;28;20057;-88
2023/10/21 03:56:59;;;;;;;43.92;16.80;;;9.60;99.90;;;;;;5043834;28;20054;-89
2023/10/21 03:59:25;;;;;;;55.03;18.48;;;9.60;99.90;;;;;;5014264;28;20057;-88
2023/10/21 04:01:51;;;;;;;32.00;14.95;;;9.60;99.90;;;;;;5027886;28;20048;-89
2023/10/21 04:04:16;;;;;;;30.85;14.73;;;9.60;99.90;;;;;;5008253;28;20055;-88
2023/10/21 04:06:42;;;;;;;30.90;14.65;;;9.60;99.90;;;;;;5029328;28;20052;-87
2023/10/21 04:09:09;;;;;;;38.70;15.73;;;9.60;99.90;;;;;;5021401;28;20136;-88
2023/10/21 04:11:35;;;;;;;37.53;14.82;;;9.60;99.90;;;;;;5014890;28;20122;-88
2023/10/21 04:14:01;;;;;;;30.33;14.65;;;9.70;99.90;;;;;;5018056;28;20045;-88
2023/10/21 04:16:26;;;;;;;28.08;13.23;;;10.40;99.90;;;;;;5020335;28;20049;-88
2023/10/21 04:18:52;;;;;;;40.95;14.68;;;9.60;99.90;;;;;;5033082;28;20036;-88
2023/10/21 04:21:19;;;;;;;44.22;16.02;;;9.60;99.90;;;;;;5029208;28;20049;-88
2023/10/21 04:23:45;;;;;;;34.20;15.30;;;9.60;99.90;;;;;;5033270;28;20140;-88
2023/10/21 04:26:10;;;;;;;26.75;13.73;;;9.60;99.90;;;;;;5033816;28;20128;-88
2023/10/21 04:28:36;;;;;;;31.17;14.20;;;9.30;99.90;;;;;;5031244;28;20465;-88
2023/10/21 04:31:02;;;;;;;37.75;15.23;;;9.60;99.90;;;;;;5028343;28;20049;-89
2023/10/21 04:33:29;;;;;;;47.55;15.77;;;9.50;99.90;;;;;;5029913;28;20048;-88
2023/10/21 04:35:54;;;;;;;42.22;15.98;;;9.50;99.90;;;;;;5016288;28;20041;-89
2023/10/21 04:38:20;;;;;;;35.78;14.63;;;9.50;99.90;;;;;;5030862;28;20445;-88
2023/10/21 04:40:46;;;;;;;35.92;14.45;;;9.40;99.90;;;;;;5016290;28;20051;-87
2023/10/21 04:43:11;;;;;;;28.48;14.07;;;9.50;99.90;;;;;;5046680;28;20056;-88
2023/10/21 04:45:37;;;;;;;44.13;15.10;;;9.50;99.90;;;;;;5015415;28;20413;-88
2023/10/21 04:48:03;;;;;;;32.53;14.30;;;9.60;99.90;;;;;;5030041;28;20041;-89
2023/10/21 04:50:31;;;;;;;33.65;13.95;;;9.60;99.90;;;;;;5015564;28;20044;-88
2023/10/21 04:52:57;;;;;;;31.20;14.73;;;10.10;99.90;;;;;;5014793;28;20067;-88
2023/10/21 04:55:22;;;;;;;29.23;14.05;;;9.60;99.90;;;;;;5031152;28;20036;-88
2023/10/21 04:57:48;;;;;;;48.40;15.98;;;9.60;99.90;;;;;;5028745;28;20041;-88
2023/10/21 05:00:14;;;;;;;43.75;14.98;;;9.60;99.90;;;;;;5030945;28;20041;-88
2023/10/21 05:02:41;;;;;;;46.53;16.50;;;9.70;99.90;;;;;;5032154;28;20075;-89
2023/10/21 05:05:09;;;;;;;35.95;15.15;;;9.70;99.90;;;;;;5031811;28;20052;-88
2023/10/21 05:07:35;;;;;;;35.00;14.77;;;9.60;99.90;;;;;;5013380;28;20095;-88
2023/10/21 05:10:01;;;;;;;40.15;15.50;;;9.70;99.90;;;;;;5033425;28;20080;-88
2023/10/21 05:12:26;;;;;;;32.83;14.45;;;9.70;99.90;;;;;;5025123;28;20037;-88
2023/10/21 05:14:52;;;;;;;35.25;15.52;;;9.80;99.90;;;;;;5019706;28;20426;-88
2023/10/21 05:17:17;;;;;;;31.58;14.68;;;9.70;99.90;;;;;;5015108;28;20499;-89
2023/10/21 05:19:43;;;;;;;26.20;14.20;;;9.80;99.90;;;;;;5031642;28;20051;-88
2023/10/21 05:22:09;;;;;;;28.25;13.38;;;9.80;99.90;;;;;;5021618;28;20429;-88
2023/10/21 05:24:34;;;;;;;42.50;16.25;;;9.90;99.90;;;;;;5014687;28;20192;-89
2023/10/21 05:27:00;;;;;;;44.25;15.15;;;10.40;99.90;;;;;;5027840;28;20068;-90
2023/10/21 05:29:26;;;;;;;31.23;15.20;;;10.40;99.90;;;;;;5016488;28;20087;-87
2023/10/21 05:31:53;;;;;;;29.30;13.93;;;9.80;99.90;;;;;;5026659;28;20474;-89
2023/10/21 05:34:19;;;;;;;32.50;15.23;;;9.90;99.90;;;;;;5027423;28;20083;-88
2023/10/21 05:36:45;;;;;;;36.40;14.57;;;9.90;99.90;;;;;;5029605;28;20037;-88
2023/10/21 05:39:13;;;;;;;52.65;15.73;;;9.90;99.90;;;;;;5030768;28;20418;-87
2023/10/21 05:41:42;;;;;;;35.78;14.60;;;9.90;99.90;;;;;;5014103;28;20053;-90
2023/10/21 05:44:11;;;;;;;27.08;14.13;;;10.00;99.90;;;;;;5031591;28;20052;-89
2023/10/21 05:46:37;;;;;;;35.38;14.13;;;9.90;99.90;;;;;;5014638;28;20053;-88
2023/10/21 05:49:03;;;;;;;26.02;13.27;;;9.80;99.90;;;;;;5029522;28;20041;-89
2023/10/21 05:51:29;;;;;;;36.38;14.48;;;10.00;99.90;;;;;;5029445;28;20045;-91
2023/10/21 05:53:56;;;;;;;39.83;15.45;;;10.10;99.90;;;;;;5013881;28;20080;-87
2023/10/21 05:56:21;;;;;;;34.58;14.88;;;10.10;99.90;;;;;;5031185;28;20571;-88
2023/10/21 05:58:47;;;;;;;37.42;15.30;;;10.10;99.90;;;;;;5019498;28;20051;-88
2023/10/21 06:01:13;;;;;;;25.90;14.10;;;10.00;99.90;;;;;;5021436;28;20041;-89
2023/10/21 06:03:39;;;;;;;27.48;13.02;;;10.00;99.90;;;;;;5033244;28;20124;-91
2023/10/21 06:06:05;;;;;;;30.05;12.98;;;10.00;99.90;;;;;;5016914;28;20490;-87
2023/10/21 06:08:31;;;;;;;36.33;15.05;;;10.00;99.90;;;;;;5031548;28;20045;-88
2023/10/21 06:10:57;;;;;;;51.60;17.45;;;10.00;99.90;;;;;;5014801;28;20102;-88
2023/10/21 06:13:24;;;;;;;39.40;14.73;;;10.10;99.90;;;;;;5049340;28;20048;-88
2023/10/21 06:15:52;;;;;;;33.13;14.70;;;10.00;99.90;;;;;;5032739;28;20052;-90
2023/10/21 06:18:18;;;;;;;30.23;14.00;;;10.10;99.90;;;;;;5017053;28;20048;-89
2023/10/21 06:20:50;;;;;;;32.53;14.27;;;10.10;99.90;;;;;;5034223;28;20822;-89
2023/10/21 06:23:16;;;;;;;29.48;13.73;;;10.10;99.90;;;;;;5018340;28;20705;-90
2023/10/21 06:25:44;;;;;;;34.70;14.30;;;10.10;99.90;;;;;;5017910;28;20037;-89
2023/10/21 06:28:11;;;;;;;32.60;14.65;;;10.10;99.90;;;;;;5018450;28;20051;-90
2023/10/21 06:30:37;;;;;;;48.88;16.40;;;10.10;99.90;;;;;;5017620;28;20056;-90
2023/10/21 06:33:03;;;;;;;25.90;12.85;;;10.10;99.90;;;;;;5016667;28;20106;-91
2023/10/21 06:35:29;;;;;;;37.67;15.00;;;10.10;99.90;;;;;;5031230;28;20558;-89
2023/10/21 06:37:55;;;;;;;39.28;14.73;;;10.00;99.90;;;;;;5014891;28;20048;-87
2023/10/21 06:40:20;;;;;;;50.40;17.70;;;10.10;99.90;;;;;;5031560;28;20045;-86
2023/10/21 06:42:46;;;;;;;39.42;16.17;;;10.20;99.90;;;;;;5045897;28;20041;-87
2023/10/21 06:45:11;;;;;;;45.78;16.98;;;10.20;99.90;;;;;;5030292;28;20080;-86
2023/10/21 06:47:37;;;;;;;31.30;13.27;;;10.30;99.90;;;;;;5045283;28;20124;-87
2023/10/21 06:50:04;;;;;;;35.67;14.48;;;10.30;99.90;;;;;;5024722;28;20775;-86
2023/10/21 06:52:31;;;;;;;28.35;13.57;;;10.20;99.90;;;;;;5027761;28;20049;-87
2023/10/21 06:54:57;;;;;;;28.77;13.00;;;10.30;99.90;;;;;;5029958;28;20059;-87
2023/10/21 06:57:23;;;;;;;23.33;12.23;;;10.30;99.90;;;;;;5029983;28;20410;-86
2023/10/21 06:59:49;;;;;;;23.40;11.95;;;10.40;99.90;;;;;;5047523;28;20045;-87
2023/10/21 07:02:17;;;;;;;33.95;14.38;;;11.20;99.90;;;;;;5013530;28;20449;-87
2023/10/21 07:04:43;;;;;;;25.73;12.15;;;10.50;99.90;;;;;;5046884;28;20116;-87
2023/10/21 07:07:10;;;;;;;36.42;14.63;;;10.50;99.90;;;;;;5028373;28;20501;-87
2023/10/21 07:09:37;;;;;;;24.38;12.32;;;10.50;99.90;;;;;;5028198;28;20049;-87
2023/10/21 07:12:03;;;;;;;27.77;12.98;;;10.60;99.90;;;;;;5029386;28;20053;-88
2023/10/21 07:14:29;;;;;;;42.40;14.27;;;10.60;99.90;;;;;;5029532;28;20128;-87
2023/10/21 07:16:55;;;;;;;28.95;13.95;;;10.70;99.90;;;;;;5029042;28;20124;-88
2023/10/21 07:19:22;;;;;;;22.52;12.43;;;10.80;99.90;;;;;;5012377;28;20116;-88
2023/10/21 07:21:48;;;;;;;25.98;12.48;;;10.90;99.90;;;;;;5025457;28;20049;-87
2023/10/21 07:24:14;;;;;;;21.50;12.05;;;10.90;99.90;;;;;;5023782;28;20463;-87
2023/10/21 07:26:40;;;;;;;26.40;12.70;;;11.00;99.90;;;;;;5026326;28;20797;-87
2023/10/21 07:29:07;;;;;;;26.73;12.68;;;11.10;99.90;;;;;;5043112;28;20045;-86
2023/10/21 07:31:34;;;;;;;25.92;13.75;;;11.20;99.90;;;;;;5026520;28;20042;-84
2023/10/21 07:34:00;;;;;;;27.38;12.98;;;11.30;99.90;;;;;;5025098;28;20049;-87
2023/10/21 07:36:25;;;;;;;26.42;13.25;;;11.30;99.90;;;;;;5025554;28;20049;-85
2023/10/21 07:38:52;;;;;;;23.90;12.70;;;11.40;99.90;;;;;;5025983;28;20041;-88
2023/10/21 07:41:19;;;;;;;24.20;12.77;;;11.50;99.90;;;;;;5026419;28;20132;-86
2023/10/21 07:43:45;;;;;;;29.33;12.85;;;11.50;99.90;;;;;;5014229;28;20073;-87
2023/10/21 07:46:10;;;;;;;24.73;13.30;;;11.60;99.90;;;;;;5025522;28;20041;-88
2023/10/21 07:48:36;;;;;;;27.02;14.30;;;11.70;99.90;;;;;;5013845;28;20461;-92
2023/10/21 07:51:02;;;;;;;28.13;13.68;;;11.80;99.90;;;;;;5030795;28;20414;-88
2023/10/21 07:53:28;;;;;;;27.05;13.43;;;11.90;99.90;;;;;;5030197;28;20096;-88
2023/10/21 07:55:54;;;;;;;24.08;12.68;;;12.00;99.90;;;;;;5030153;28;20136;-88
2023/10/21 07:58:20;;;;;;;25.70;13.60;;;12.10;99.90;;;;;;5031391;28;20637;-87
2023/10/21 08:00:46;;;;;;;26.90;14.55;;;12.20;99.90;;;;;;5014277;28;20046;-92
2023/10/21 08:03:12;;;;;;;28.02;13.00;;;12.30;99.90;;;;;;5032693;28;20395;-88
2023/10/21 08:05:38;;;;;;;26.55;13.55;;;12.50;99.90;;;;;;5014209;28;20096;-91
2023/10/21 08:08:05;;;;;;;22.15;13.65;;;12.40;99.90;;;;;;5031054;28;20064;-90
2023/10/21 08:10:30;;;;;;;26.55;13.70;;;12.60;99.90;;;;;;5022124;28;20045;-92
2023/10/21 08:12:59;;;;;;;29.27;13.45;;;12.60;99.90;;;;;;5014950;28;20128;-90
2023/10/21 08:15:25;;;;;;;25.75;12.02;;;12.70;99.90;;;;;;5030457;28;20038;-90
2023/10/21 08:17:51;;;;;;;22.17;12.18;;;12.80;99.90;;;;;;5042779;28;20040;-89
2023/10/21 08:20:17;;;;;;;22.60;12.23;;;12.90;99.90;;;;;;5010624;28;20092;-89
2023/10/21 08:22:43;;;;;;;26.00;12.68;;;12.90;99.90;;;;;;4995117;28;20057;-88
2023/10/21 08:25:09;;;;;;;27.75;11.90;;;13.00;99.90;;;;;;5013991;28;20037;-89
2023/10/21 08:27:36;;;;;;;22.23;11.25;;;13.00;99.90;;;;;;5030610;28;20073;-88
2023/10/21 08:30:03;;;;;;;25.40;11.27;;;13.10;99.90;;;;;;5031304;28;20045;-89
2023/10/21 08:32:28;;;;;;;21.48;10.38;;;13.10;99.90;;;;;;5031044;28;20052;-88
2023/10/21 08:34:54;;;;;;;19.58;10.90;;;13.20;99.90;;;;;;5029886;28;21765;-87
2023/10/21 08:37:24;;;;;;;17.17;10.23;;;13.20;99.90;;;;;;5013714;28;20049;-88
2023/10/21 08:39:49;;;;;;;22.65;9.85;;;13.20;99.90;;;;;;5031389;28;20050;-89
2023/10/21 08:42:18;;;;;;;15.32;10.13;;;13.20;99.90;;;;;;5029647;28;20384;-89
2023/10/21 08:44:48;;;;;;;15.45;10.38;;;13.20;99.90;;;;;;5029794;28;20537;-90
2023/10/21 08:47:16;;;;;;;14.32;10.07;;;13.30;99.90;;;;;;5028386;28;20092;-90
2023/10/21 08:49:45;;;;;;;16.55;10.20;;;13.30;99.90;;;;;;5028267;28;20503;-90
2023/10/21 08:52:13;;;;;;;17.02;9.57;;;13.60;99.90;;;;;;5028075;28;20049;-90
2023/10/21 08:54:42;;;;;;;15.30;9.38;;;13.40;99.90;;;;;;5028924;28;20048;-89
2023/10/21 08:57:09;;;;;;;14.27;9.35;;;13.50;99.90;;;;;;5030606;28;20057;-90
2023/10/21 08:59:36;;;;;;;12.45;9.00;;;13.50;99.90;;;;;;5028877;28;20099;-88
2023/10/21 09:02:02;;;;;;;14.80;8.50;;;13.50;99.90;;;;;;5030559;28;20125;-92
2023/10/21 09:04:31;;;;;;;17.65;9.07;;;13.60;99.90;;;;;;5032135;28;20071;-90
2023/10/21 09:07:00;;;;;;;15.52;8.82;;;13.60;99.90;;;;;;5015976;28;20041;-92
2023/10/21 09:09:27;;;;;;;13.93;7.40;;;13.70;99.90;;;;;;5015633;28;20630;-90
2023/10/21 09:12:10;;;;;;;13.63;7.43;;;14.00;99.90;;;;;;5015756;28;20048;-91
2023/10/21 09:14:56;;;;;;;11.55;6.60;;;13.60;99.90;;;;;;5009469;28;20660;-89
2023/10/21 09:17:36;;;;;;;14.43;7.13;;;13.60;99.90;;;;;;5013575;28;20484;-89
2023/10/21 09:20:11;;;;;;;11.65;6.63;;;13.80;99.90;;;;;;5033510;28;20175;-88
2023/10/21 09:22:37;;;;;;;11.65;7.05;;;13.70;99.90;;;;;;5031590;28;20052;-89
2023/10/21 09:25:15;;;;;;;13.65;7.32;;;14.10;99.90;;;;;;5033273;28;20145;-93
2023/10/21 09:27:43;;;;;;;13.50;7.28;;;13.70;99.90;;;;;;5033859;28;20052;-89
2023/10/21 09:30:19;;;;;;;10.95;6.85;;;14.60;99.90;;;;;;5034063;28;20427;-91
2023/10/21 09:32:49;;;;;;;10.68;6.00;;;13.60;99.90;;;;;;5033685;28;20124;-92
2023/10/21 09:35:25;;;;;;;9.70;6.18;;;13.70;99.90;;;;;;5008412;28;20037;-92
2023/10/21 09:37:55;;;;;;;11.63;5.65;;;13.80;99.90;;;;;;5035768;28;20055;-95
2023/10/21 09:40:26;;;;;;;10.20;6.35;;;13.80;99.90;;;;;;5020321;28;20037;-91
2023/10/21 09:42:53;;;;;;;6.65;5.22;;;13.80;99.90;;;;;;5019599;28;20087;-92
2023/10/21 09:45:34;;;;;;;10.65;6.00;;;14.30;99.90;;;;;;5019661;28;20049;-94
2023/10/21 09:48:05;;;;;;;6.85;4.38;;;13.80;99.90;;;;;;5019390;28;20497;-91
2023/10/21 09:50:33;;;;;;;7.28;4.80;;;13.80;99.90;;;;;;5033606;28;20053;-89
2023/10/21 09:53:24;;;;;;;5.00;4.10;;;13.80;99.90;;;;;;5017820;28;20045;-90
2023/10/21 09:55:51;;;;;;;4.97;3.67;;;13.80;99.90;;;;;;5016722;28;20056;-86
2023/10/21 09:58:19;;;;;;;6.75;3.47;;;13.80;99.90;;;;;;5018727;28;20045;-92
2023/10/21 10:00:46;;;;;;;7.07;3.33;;;14.20;99.90;;;;;;5018413;28;20052;-89
2023/10/21 10:03:14;;;;;;;6.43;3.88;;;13.80;99.90;;;;;;5019071;28;20037;-90
2023/10/21 10:05:41;;;;;;;5.03;3.50;;;13.80;99.90;;;;;;5019855;28;20053;-92
2023/10/21 10:08:08;;;;;;;5.35;3.10;;;13.80;99.90;;;;;;5019370;28;20048;-90
2023/10/21 10:10:38;;;;;;;3.53;2.55;;;13.80;99.90;;;;;;5037281;28;20056;-90
2023/10/21 10:13:10;;;;;;;2.78;2.22;;;13.70;99.90;;;;;;5021057;28;20049;-93
2023/10/21 10:15:37;;;;;;;3.85;2.08;;;13.70;99.90;;;;;;5017303;28;20081;-90
2023/10/21 10:18:19;;;;;;;4.07;1.60;;;13.70;99.90;;;;;;5016446;28;20057;-91
2023/10/21 10:20:48;;;;;;;2.83;1.35;;;13.70;99.90;;;;;;5033214;28;20080;-88
2023/10/21 10:23:14;;;;;;;2.10;1.90;;;13.70;99.90;;;;;;5016155;28;20057;-88
2023/10/21 10:25:45;;;;;;;1.77;1.40;;;14.30;99.90;;;;;;5032542;28;20049;-88
2023/10/21 10:28:25;;;;;;;2.53;1.20;;;13.70;99.90;;;;;;5033307;28;20498;-88
2023/10/21 10:30:52;;;;;;;2.58;1.27;;;13.70;99.90;;;;;;5019002;28;20030;-87
2023/10/21 10:33:18;;;;;;;1.73;1.13;;;13.70;99.90;;;;;;5030681;28;20049;-85
2023/10/21 10:35:52;;;;;;;1.80;1.40;;;14.40;99.90;;;;;;5013272;28;20052;-86
2023/10/21 10:38:27;;;;;;;2.25;1.10;;;13.80;99.90;;;;;;5014282;28;20045;-86
2023/10/21 10:41:06;;;;;;;3.75;1.33;;;13.80;99.90;;;;;;5049037;28;20471;-86
2023/10/21 10:43:35;;;;;;;3.08;1.20;;;13.60;99.90;;;;;;5031427;28;20766;-88
2023/10/21 10:46:01;;;;;;;2.78;1.50;;;14.50;99.90;;;;;;5015447;28;20044;-91
2023/10/21 10:48:29;;;;;;;2.42;1.40;;;13.60;99.90;;;;;;5014674;28;20047;-87
2023/10/21 10:51:00;;;;;;;2.25;1.23;;;13.70;99.90;;;;;;5030715;28;20099;-88
2023/10/21 10:53:27;;;;;;;4.97;1.38;;;14.20;99.90;;;;;;5029689;28;20081;-88
2023/10/21 10:55:56;;;;;;;2.47;1.02;;;13.70;99.90;;;;;;5014056;28;20118;-87
2023/10/21 10:58:28;;;;;;;3.00;1.10;;;13.70;99.90;;;;;;5030825;28;20132;-88
2023/10/21 11:00:54;;;;;;;1.70;1.20;;;13.60;99.90;;;;;;5047999;28;20051;-86
2023/10/21 11:03:27;;;;;;;1.20;1.10;;;13.60;99.90;;;;;;5014182;28;20091;-87
2023/10/21 11:05:57;;;;;;;2.20;1.08;;;13.60;99.90;;;;;;5030746;28;20503;-87
2023/10/21 11:08:24;;;;;;;2.33;0.95;;;13.60;99.90;;;;;;5012771;28;20052;-87
2023/10/21 11:10:54;;;;;;;2.63;1.25;;;13.60;99.90;;;;;;5030235;28;20041;-88
2023/10/21 11:13:20;;;;;;;2.35;1.25;;;13.60;99.90;;;;;;5047430;28;20041;-85
2023/10/21 11:15:48;;;;;;;2.22;0.82;;;13.60;99.90;;;;;;5030085;28;20829;-87
2023/10/21 11:18:15;;;;;;;1.00;0.90;;;13.60;99.90;;;;;;5047076;28;20045;-88
2023/10/21 11:20:50;;;;;;;1.95;0.70;;;13.70;99.90;;;;;;5029938;28;20452;-85
2023/10/21 11:23:20;;;;;;;1.50;0.80;;;13.70;99.90;;;;;;5051328;28;20126;-86
2023/10/21 11:25:58;;;;;;;1.15;1.00;;;13.70;99.90;;;;;;5034126;28;20418;-86
2023/10/21 11:28:29;;;;;;;0.60;0.60;;;13.60;99.90;;;;;;5033768;28;20045;-85
2023/10/21 11:30:58;;;;;;;1.65;0.90;;;13.60;99.90;;;;;;5018090;28;20128;-87
2023/10/21 11:33:26;;;;;;;1.42;1.33;;;13.50;99.90;;;;;;5017570;28;20081;-86
2023/10/21 11:35:52;;;;;;;1.58;0.90;;;13.50;99.90;;;;;;5032296;28;20084;-82
2023/10/21 11:38:17;;;;;;;0.80;0.80;;;13.50;99.90;;;;;;5033552;28;20048;-86
2023/10/21 11:40:45;;;;;;;2.58;0.80;;;13.40;99.90;;;;;;5034183;28;20056;-88
2023/10/21 11:43:12;;;;;;;2.42;1.45;;;13.30;99.90;;;;;;5033617;28;20128;-87
2023/10/21 11:45:41;;;;;;;1.00;0.80;;;14.10;99.90;;;;;;5034638;28;20112;-87
2023/10/21 11:48:11;;;;;;;2.22;0.90;;;13.20;99.90;;;;;;5017799;28;20116;-87
2023/10/21 11:50:42;;;;;;;1.77;0.82;;;12.90;99.90;;;;;;5036758;28;20059;-91
2023/10/21 11:53:09;;;;;;;6.15;1.38;;;13.20;99.90;;;;;;5036905;28;20044;-88
2023/10/21 11:56:00;;;;;;;3.30;1.00;;;13.30;99.90;;;;;;5050081;28;20091;-87
2023/10/21 12:07:20;;;;;;;1.48;1.10;;;13.50;99.90;;;;;;5048299;28;20094;-87
2023/10/21 12:23:33;;;;;;;2.88;1.30;;;13.70;99.90;;;;;;5035034;28;20060;-90
2023/10/21 12:29:17;;;;;;;1.17;0.80;;;14.00;99.90;;;;;;5035087;28;20048;-90
2023/10/21 12:36:37;;;;;;;1.23;1.00;;;14.60;99.90;;;;;;5051870;28;20049;-91
2023/10/21 12:41:41;;;;;;;2.33;1.20;;;13.90;99.90;;;;;;5052733;28;20191;-89
2023/10/21 12:44:19;;;;;;;1.02;0.82;;;13.90;99.90;;;;;;5034780;28;20084;-93
2023/10/21 12:46:47;;;;;;;1.90;1.08;;;13.90;99.90;;;;;;5035006;28;20055;-90
2023/10/21 12:49:16;;;;;;;3.15;1.15;;;13.80;99.90;;;;;;5034237;28;20045;-89
2023/10/21 12:51:41;;;;;;;2.05;1.00;;;14.30;99.90;;;;;;5034010;28;20049;-90
2023/10/21 12:54:10;;;;;;;2.95;1.17;;;14.00;99.90;;;;;;5035512;28;20033;-91
2023/10/21 12:56:40;;;;;;;1.67;0.90;;;14.80;99.90;;;;;;5034824;28;20052;-91
2023/10/21 12:59:08;;;;;;;2.03;1.00;;;14.20;99.90;;;;;;5034784;28;20414;-90
2023/10/21 13:01:34;;;;;;;3.33;1.40;;;14.30;99.90;;;;;;5018683;28;20371;-90
2023/10/21 13:04:00;;;;;;;5.30;1.20;;;14.30;99.90;;;;;;5052531;28;20037;-90
2023/10/21 13:06:26;;;;;;;2.10;1.00;;;14.40;99.90;;;;;;5051898;28;20049;-90
2023/10/21 13:08:51;;;;;;;2.03;1.02;;;14.40;99.90;;;;;;5034152;28;20052;-91